Time;durP1;ratioP1;P1;durP2;ratioP2;P2;SDS_P1;SDS_P2;PMS_P1;PMS_P2;Temp;Humidity;BMP_temperature;BMP_pressure;BME280_temperature;BME280_humidity;BME280_pressure;Samples;Min_cycle;Max_cycle;Signal;HPM_P1;HPM_P2
2020/12/19 00:08:27;;;;;;;16.07;12.80;;;5.50;99.90;;;;;;4969299;28;20759;-80
2020/12/19 00:10:55;;;;;;;14.10;12.53;;;5.50;99.90;;;;;;4972890;28;21057;-79
2020/12/19 00:13:23;;;;;;;17.17;12.90;;;5.50;99.90;;;;;;4973179;28;20583;-79
2020/12/19 00:15:50;;;;;;;14.67;12.70;;;5.50;99.90;;;;;;4976225;28;20547;-84
2020/12/19 00:18:19;;;;;;;15.47;12.97;;;5.50;99.90;;;;;;4988770;28;20607;-83
2020/12/19 00:20:46;;;;;;;16.70;13.33;;;5.50;99.90;;;;;;4977008;28;20517;-83
2020/12/19 00:23:20;;;;;;;17.07;13.93;;;5.50;99.90;;;;;;4976884;28;20273;-83
2020/12/19 00:25:48;;;;;;;17.40;14.00;;;5.50;99.90;;;;;;4975254;28;21350;-82
2020/12/19 00:32:23;;;;;;;16.60;12.87;;;5.50;99.90;;;;;;4972866;28;20564;-83
2020/12/19 00:34:56;;;;;;;16.50;13.97;;;5.50;99.90;;;;;;4974491;28;20995;-83
2020/12/19 00:37:24;;;;;;;17.33;13.73;;;5.40;99.90;;;;;;4990129;28;20583;-83
2020/12/19 00:39:56;;;;;;;17.10;12.90;;;5.40;99.90;;;;;;1778413;28;10022851;-83
2020/12/19 00:42:24;;;;;;;18.77;14.30;;;5.40;99.90;;;;;;4288644;28;10000718;-83
2020/12/19 00:44:51;;;;;;;16.50;13.80;;;5.40;99.90;;;;;;4992011;28;20505;-83
2020/12/19 00:47:20;;;;;;;16.57;13.60;;;5.40;99.90;;;;;;4978208;28;20488;-83
2020/12/19 00:49:48;;;;;;;18.30;13.43;;;5.40;99.90;;;;;;4974821;28;21334;-84
2020/12/19 00:52:19;;;;;;;18.87;13.87;;;5.40;99.90;;;;;;4989010;28;20854;-84
2020/12/19 00:54:49;;;;;;;16.37;13.27;;;5.40;99.90;;;;;;4974133;28;20262;-83
2020/12/19 00:57:16;;;;;;;17.70;14.73;;;5.40;99.90;;;;;;4996635;28;20529;-82
2020/12/19 00:59:44;;;;;;;18.90;14.87;;;5.40;99.90;;;;;;5030135;28;21687;-83
2020/12/19 01:02:11;;;;;;;17.03;14.63;;;5.40;99.90;;;;;;5024840;28;20317;-82
2020/12/19 01:04:40;;;;;;;19.20;15.10;;;5.40;99.90;;;;;;5021697;28;20507;-84
2020/12/19 01:07:11;;;;;;;19.37;14.40;;;5.30;99.90;;;;;;5022123;28;20291;-83
2020/12/19 01:09:39;;;;;;;17.43;14.17;;;5.30;99.90;;;;;;5029932;28;20541;-83
2020/12/19 01:12:07;;;;;;;19.27;14.00;;;5.30;99.90;;;;;;5029539;28;20550;-83
2020/12/19 01:14:35;;;;;;;16.50;14.17;;;5.40;99.90;;;;;;5022879;28;20267;-83
2020/12/19 01:17:05;;;;;;;17.63;13.87;;;5.40;99.90;;;;;;5027090;28;20510;-83
2020/12/19 01:19:33;;;;;;;17.27;14.43;;;5.30;99.90;;;;;;5025083;28;20474;-82
2020/12/19 01:22:00;;;;;;;16.20;13.20;;;5.40;99.90;;;;;;5010607;28;20878;-83
2020/12/19 01:24:28;;;;;;;16.40;13.60;;;5.30;99.90;;;;;;5029277;28;20507;-82
2020/12/19 01:26:55;;;;;;;16.57;14.03;;;5.30;99.90;;;;;;5029668;28;20486;-82
2020/12/19 01:29:25;;;;;;;17.37;13.73;;;5.30;99.90;;;;;;5030441;28;20565;-82
2020/12/19 01:31:54;;;;;;;17.57;14.23;;;5.30;99.90;;;;;;5030830;28;21016;-83
2020/12/19 01:34:21;;;;;;;16.10;14.23;;;5.30;99.90;;;;;;5029961;28;20467;-83
2020/12/19 01:36:49;;;;;;;16.30;13.93;;;5.30;99.90;;;;;;5029296;28;20252;-83
2020/12/19 01:39:16;;;;;;;17.87;14.93;;;5.20;99.90;;;;;;5029791;28;20554;-83
2020/12/19 01:41:44;;;;;;;18.80;15.10;;;5.20;99.90;;;;;;5018040;28;20331;-82
2020/12/19 01:44:12;;;;;;;17.00;14.27;;;5.20;99.90;;;;;;5012138;28;20533;-83
2020/12/19 01:46:55;;;;;;;17.67;13.80;;;5.20;99.90;;;;;;5030200;28;20483;-83
2020/12/19 01:49:24;;;;;;;17.40;14.57;;;5.20;99.90;;;;;;5030871;28;21022;-83
2020/12/19 01:51:55;;;;;;;19.07;14.77;;;5.20;99.90;;;;;;5030818;28;20986;-83
2020/12/19 01:54:24;;;;;;;17.20;14.23;;;5.20;99.90;;;;;;5030312;28;20319;-83
2020/12/19 01:56:54;;;;;;;18.47;14.57;;;5.20;99.90;;;;;;5030436;28;20490;-83
2020/12/19 01:59:24;;;;;;;19.77;15.40;;;5.20;99.90;;;;;;4991180;28;20475;-82
2020/12/19 02:01:54;;;;;;;19.97;15.67;;;5.20;99.90;;;;;;4991741;28;20484;-83
2020/12/19 02:04:25;;;;;;;18.97;15.07;;;5.20;99.90;;;;;;4990617;28;20993;-83
2020/12/19 02:06:54;;;;;;;21.63;15.37;;;5.20;99.90;;;;;;4990795;28;20483;-82
2020/12/19 02:09:25;;;;;;;21.70;15.83;;;5.20;99.90;;;;;;4990584;28;20476;-82
2020/12/19 02:11:55;;;;;;;19.40;15.60;;;5.20;99.90;;;;;;4989802;28;20554;-81
2020/12/19 02:14:23;;;;;;;19.87;16.47;;;5.20;99.90;;;;;;4986775;28;20562;-82
2020/12/19 02:16:56;;;;;;;19.57;14.73;;;5.20;99.90;;;;;;4989926;28;20480;-83
2020/12/19 02:19:24;;;;;;;19.40;16.47;;;5.20;99.90;;;;;;4990204;28;20548;-82
2020/12/19 02:21:52;;;;;;;20.83;16.17;;;5.10;99.90;;;;;;4989186;28;21129;-82
2020/12/19 02:24:21;;;;;;;19.83;15.90;;;5.10;99.90;;;;;;4990390;28;20237;-83
2020/12/19 02:26:50;;;;;;;21.83;18.03;;;5.20;99.90;;;;;;5004961;28;20779;-82
2020/12/19 02:29:19;;;;;;;23.17;18.30;;;5.10;99.90;;;;;;4990288;28;20480;-82
2020/12/19 02:31:47;;;;;;;19.43;16.90;;;5.10;99.90;;;;;;4987073;28;20561;-82
2020/12/19 02:34:15;;;;;;;21.03;17.27;;;5.10;99.90;;;;;;4990138;28;21030;-82
2020/12/19 02:36:43;;;;;;;23.20;17.77;;;5.10;99.90;;;;;;4989949;28;20485;-82
2020/12/19 02:39:10;;;;;;;24.20;17.67;;;5.10;99.90;;;;;;4989741;28;20861;-82
2020/12/19 02:41:40;;;;;;;22.83;17.73;;;5.10;99.90;;;;;;4989927;28;20830;-82
2020/12/19 02:44:11;;;;;;;20.63;17.03;;;5.10;99.90;;;;;;4993461;28;20621;-83
2020/12/19 02:46:41;;;;;;;22.67;18.13;;;5.10;99.90;;;;;;5008469;28;20539;-82
2020/12/19 02:49:09;;;;;;;22.47;18.30;;;5.00;99.90;;;;;;4993961;28;20484;-82
2020/12/19 02:51:37;;;;;;;22.77;18.27;;;5.10;99.90;;;;;;4993638;28;20645;-82
2020/12/19 02:54:05;;;;;;;22.40;17.20;;;5.00;99.90;;;;;;4993642;28;20821;-82
2020/12/19 02:56:32;;;;;;;21.43;18.10;;;5.10;99.90;;;;;;4992193;28;20287;-82
2020/12/19 02:59:00;;;;;;;23.37;19.10;;;5.00;99.90;;;;;;5026609;28;20481;-82
2020/12/19 03:01:29;;;;;;;22.90;18.60;;;5.00;99.90;;;;;;5020474;28;20545;-82
2020/12/19 03:03:56;;;;;;;24.30;18.47;;;5.00;99.90;;;;;;5012902;28;20490;-82
2020/12/19 03:06:33;;;;;;;22.10;17.90;;;5.00;99.90;;;;;;5012696;28;20478;-82
2020/12/19 03:09:01;;;;;;;24.20;18.13;;;5.00;99.90;;;;;;5031852;28;20467;-82
2020/12/19 03:11:28;;;;;;;24.80;18.57;;;5.00;99.90;;;;;;5031837;28;20703;-82
2020/12/19 03:13:56;;;;;;;23.37;19.33;;;5.00;99.90;;;;;;5032160;28;21102;-82
2020/12/19 03:16:24;;;;;;;29.23;19.37;;;5.00;99.90;;;;;;5032256;28;20553;-82
2020/12/19 03:18:51;;;;;;;26.03;20.93;;;5.00;99.90;;;;;;5032440;28;20493;-82
2020/12/19 03:21:19;;;;;;;25.53;20.40;;;5.00;99.90;;;;;;5014740;28;20477;-81
2020/12/19 03:23:46;;;;;;;23.13;18.43;;;5.00;99.90;;;;;;5032302;28;20495;-82
2020/12/19 03:26:14;;;;;;;26.40;19.30;;;5.00;99.90;;;;;;5031775;28;20540;-82
2020/12/19 03:28:41;;;;;;;25.23;20.00;;;5.00;99.90;;;;;;5031956;28;20474;-82
2020/12/19 03:31:09;;;;;;;24.70;19.27;;;5.00;99.90;;;;;;5030852;28;20533;-82
2020/12/19 03:33:37;;;;;;;26.13;19.83;;;5.00;99.90;;;;;;5013815;28;20498;-82
2020/12/19 03:36:05;;;;;;;27.73;20.17;;;5.00;99.90;;;;;;5017433;28;20487;-82
2020/12/19 03:38:32;;;;;;;23.73;18.77;;;5.00;99.90;;;;;;5029810;28;20495;-82
2020/12/19 03:40:59;;;;;;;24.83;19.10;;;5.00;99.90;;;;;;5032003;28;20479;-82
2020/12/19 03:43:27;;;;;;;23.57;19.50;;;4.90;99.90;;;;;;5031740;28;20510;-82
2020/12/19 03:45:54;;;;;;;26.03;19.80;;;4.90;99.90;;;;;;5031870;28;20487;-82
2020/12/19 03:48:22;;;;;;;28.37;19.97;;;4.90;99.90;;;;;;5014732;28;20549;-82
2020/12/19 03:50:50;;;;;;;26.63;19.80;;;4.90;99.90;;;;;;5031155;28;20475;-83
2020/12/19 03:53:17;;;;;;;26.23;19.73;;;4.90;99.90;;;;;;5031708;28;20528;-82
2020/12/19 03:55:45;;;;;;;25.50;20.23;;;4.80;99.90;;;;;;5031704;28;21365;-82
2020/12/19 03:58:12;;;;;;;25.83;19.50;;;4.90;99.90;;;;;;5031651;28;20478;-83
2020/12/19 04:00:39;;;;;;;25.97;20.43;;;4.90;99.90;;;;;;5031644;28;20565;-83
2020/12/19 04:03:09;;;;;;;26.20;19.63;;;4.90;99.90;;;;;;5026893;28;20522;-82
2020/12/19 04:05:36;;;;;;;25.53;20.40;;;4.90;99.90;;;;;;5011709;28;20536;-82
2020/12/19 04:08:04;;;;;;;25.47;19.70;;;4.90;99.90;;;;;;5025871;28;21009;-82
2020/12/19 04:10:32;;;;;;;27.00;20.47;;;4.90;99.90;;;;;;5022528;28;20479;-82
2020/12/19 04:13:00;;;;;;;26.73;20.23;;;4.90;99.90;;;;;;5015227;28;20594;-83
2020/12/19 04:15:28;;;;;;;24.23;19.67;;;4.80;99.90;;;;;;5031581;28;20878;-82
2020/12/19 04:17:55;;;;;;;26.83;20.30;;;4.80;99.90;;;;;;5031395;28;20483;-82
2020/12/19 04:20:22;;;;;;;27.50;20.80;;;4.80;99.90;;;;;;5031722;28;20493;-81
2020/12/19 04:22:50;;;;;;;27.93;20.73;;;4.80;99.90;;;;;;5031202;28;20913;-82
2020/12/19 04:25:18;;;;;;;28.20;21.73;;;4.80;99.90;;;;;;5031482;28;20456;-83
2020/12/19 04:27:46;;;;;;;25.97;20.17;;;4.80;99.90;;;;;;5022301;28;20519;-82
2020/12/19 04:30:13;;;;;;;27.83;21.27;;;4.80;99.90;;;;;;5015847;28;20491;-82
2020/12/19 04:32:41;;;;;;;25.57;20.40;;;4.80;99.90;;;;;;5027825;28;20878;-82
2020/12/19 04:35:09;;;;;;;26.30;19.93;;;4.80;99.90;;;;;;5030841;28;20482;-82
2020/12/19 04:37:37;;;;;;;25.07;20.30;;;4.80;99.90;;;;;;5026218;28;20537;-82
2020/12/19 04:40:05;;;;;;;26.83;20.53;;;4.80;99.90;;;;;;5023676;28;20487;-84
2020/12/19 04:42:40;;;;;;;27.93;20.97;;;4.80;99.90;;;;;;5030894;28;20475;-82
2020/12/19 04:45:08;;;;;;;27.80;21.37;;;4.80;99.90;;;;;;5031076;28;20493;-82
2020/12/19 04:47:37;;;;;;;25.57;19.50;;;4.70;99.90;;;;;;5028829;28;20479;-83
2020/12/19 04:50:06;;;;;;;29.10;20.37;;;4.70;99.90;;;;;;5032847;28;20478;-82
2020/12/19 04:52:34;;;;;;;28.67;21.60;;;4.70;99.90;;;;;;5036692;28;20493;-82
2020/12/19 04:55:02;;;;;;;28.33;22.03;;;4.70;99.90;;;;;;5030529;28;20532;-82
2020/12/19 04:57:29;;;;;;;28.90;21.27;;;4.70;99.90;;;;;;5027423;28;20502;-82
2020/12/19 04:59:57;;;;;;;26.47;19.17;;;4.70;99.90;;;;;;5027354;28;20493;-82
2020/12/19 05:02:26;;;;;;;27.67;20.67;;;4.70;99.90;;;;;;5028377;28;20503;-82
2020/12/19 05:04:58;;;;;;;27.23;20.93;;;4.70;99.90;;;;;;5026337;28;20566;-83
2020/12/19 05:07:39;;;;;;;28.30;20.93;;;4.70;99.90;;;;;;5029465;28;20463;-82
2020/12/19 05:10:07;;;;;;;24.50;19.60;;;4.70;99.90;;;;;;5013717;28;20861;-83
2020/12/19 05:12:35;;;;;;;27.57;20.53;;;4.70;99.90;;;;;;5008396;28;20474;-82
2020/12/19 05:15:06;;;;;;;25.30;19.80;;;4.60;99.90;;;;;;5028502;28;20474;-82
2020/12/19 05:17:34;;;;;;;26.77;20.73;;;4.60;99.90;;;;;;5029631;28;21031;-82
2020/12/19 05:20:02;;;;;;;25.63;20.53;;;4.60;99.90;;;;;;5030016;28;20562;-83
2020/12/19 05:22:34;;;;;;;28.40;20.43;;;4.60;99.90;;;;;;5029577;28;20973;-82
2020/12/19 05:25:03;;;;;;;26.93;20.03;;;4.60;99.90;;;;;;5030039;28;21006;-82
2020/12/19 05:27:33;;;;;;;26.33;20.30;;;4.60;99.90;;;;;;5028956;28;20488;-83
2020/12/19 05:30:00;;;;;;;26.70;19.37;;;4.50;99.90;;;;;;5029339;28;20567;-82
2020/12/19 05:32:35;;;;;;;30.07;20.60;;;4.50;99.90;;;;;;5028510;28;20479;-82
2020/12/19 05:35:07;;;;;;;25.67;20.03;;;4.50;99.90;;;;;;5027962;28;21002;-82
2020/12/19 05:37:34;;;;;;;25.03;19.37;;;4.50;99.90;;;;;;5011545;28;20550;-81
2020/12/19 05:40:11;;;;;;;28.43;20.50;;;4.50;99.90;;;;;;5025128;28;20484;-82
2020/12/19 05:42:39;;;;;;;27.20;19.20;;;4.50;99.90;;;;;;5010319;28;20483;-83
2020/12/19 05:45:19;;;;;;;26.37;19.97;;;4.50;99.90;;;;;;5021396;28;20316;-82
2020/12/19 05:47:48;;;;;;;27.37;20.07;;;4.50;99.90;;;;;;5017258;28;20471;-82
2020/12/19 05:50:18;;;;;;;26.33;20.00;;;4.50;99.90;;;;;;5021756;28;20555;-83
2020/12/19 05:52:46;;;;;;;28.63;20.50;;;4.40;99.90;;;;;;5018914;28;20477;-83
2020/12/19 05:55:16;;;;;;;29.40;19.57;;;4.50;99.90;;;;;;5027120;28;20483;-83
2020/12/19 05:57:44;;;;;;;26.23;20.67;;;4.40;99.90;;;;;;5011497;28;20544;-82
2020/12/19 06:00:14;;;;;;;27.23;20.37;;;4.40;99.90;;;;;;5025146;28;20543;-83
2020/12/19 06:02:44;;;;;;;27.03;20.10;;;4.40;99.90;;;;;;5030214;28;20542;-83
2020/12/19 06:05:15;;;;;;;25.97;20.47;;;4.40;99.90;;;;;;5030377;28;20474;-82
2020/12/19 06:07:45;;;;;;;27.20;20.07;;;4.40;99.90;;;;;;5025004;28;20479;-82
2020/12/19 06:10:15;;;;;;;25.97;19.53;;;4.30;99.90;;;;;;5023362;28;20517;-82
2020/12/19 06:12:59;;;;;;;27.13;19.60;;;4.30;99.90;;;;;;5030368;28;20236;-82
2020/12/19 06:15:50;;;;;;;26.87;19.47;;;4.30;99.90;;;;;;5033572;28;20503;-83
2020/12/19 06:18:35;;;;;;;29.60;19.90;;;4.30;99.90;;;;;;5037628;28;20488;-82
2020/12/19 06:21:08;;;;;;;27.93;20.00;;;4.30;99.90;;;;;;5018472;28;20987;-83
2020/12/19 06:23:37;;;;;;;25.83;20.33;;;4.30;99.90;;;;;;5020304;28;20490;-82
2020/12/19 06:26:09;;;;;;;31.23;21.17;;;4.30;99.90;;;;;;5033287;28;20475;-83
2020/12/19 06:28:55;;;;;;;28.73;21.17;;;4.30;99.90;;;;;;5032474;28;20479;-83
2020/12/19 06:31:23;;;;;;;31.87;22.47;;;4.30;99.90;;;;;;5035651;28;20479;-82
2020/12/19 06:33:53;;;;;;;28.80;21.07;;;4.20;99.90;;;;;;5037320;28;20483;-83
2020/12/19 06:36:25;;;;;;;31.00;21.77;;;4.20;99.90;;;;;;5034448;28;20459;-82
2020/12/19 06:38:54;;;;;;;27.63;20.07;;;4.20;99.90;;;;;;5018035;28;20495;-82
2020/12/19 06:41:45;;;;;;;28.17;20.63;;;4.20;99.90;;;;;;5030010;28;20525;-82
2020/12/19 06:44:25;;;;;;;30.13;21.37;;;4.20;99.90;;;;;;5023552;28;20510;-84
2020/12/19 06:47:01;;;;;;;29.97;19.90;;;4.20;99.90;;;;;;5023744;28;20989;-84
2020/12/19 06:49:38;;;;;;;29.23;20.53;;;4.20;99.90;;;;;;5018334;28;20545;-85
2020/12/19 06:52:11;;;;;;;30.90;21.27;;;4.20;99.90;;;;;;5030336;28;20540;-85
2020/12/19 06:54:41;;;;;;;31.67;21.37;;;4.20;99.90;;;;;;5021208;28;20812;-85
2020/12/19 06:57:23;;;;;;;31.60;21.30;;;4.20;99.90;;;;;;5036348;28;20483;-83
2020/12/19 06:59:51;;;;;;;27.77;19.40;;;4.20;99.90;;;;;;5033296;28;20502;-83
2020/12/19 07:02:23;;;;;;;27.50;20.00;;;4.20;99.90;;;;;;5036805;28;20562;-83
2020/12/19 07:04:52;;;;;;;29.47;20.47;;;4.20;99.90;;;;;;5036342;28;20491;-83
2020/12/19 07:07:25;;;;;;;30.30;20.90;;;4.20;99.90;;;;;;5036556;28;20848;-83
2020/12/19 07:09:58;;;;;;;28.27;19.80;;;4.20;99.90;;;;;;5038149;28;20478;-83
2020/12/19 07:12:34;;;;;;;27.47;19.97;;;4.20;99.90;;;;;;5034685;28;20527;-82
2020/12/19 07:15:05;;;;;;;29.83;21.37;;;4.20;99.90;;;;;;5035355;28;20966;-84
2020/12/19 07:17:47;;;;;;;27.13;20.23;;;4.20;99.90;;;;;;5034811;28;20479;-82
2020/12/19 07:20:22;;;;;;;29.03;20.83;;;4.20;99.90;;;;;;5016637;28;20477;-85
2020/12/19 07:22:51;;;;;;;32.50;22.53;;;4.10;99.90;;;;;;5032720;28;20538;-84
2020/12/19 07:25:19;;;;;;;32.73;21.63;;;4.20;99.90;;;;;;5030005;28;20486;-84
2020/12/19 07:27:49;;;;;;;30.77;21.37;;;4.10;99.90;;;;;;5031724;28;20461;-85
2020/12/19 07:30:16;;;;;;;31.00;21.40;;;4.10;99.90;;;;;;5027651;28;20478;-84
2020/12/19 07:32:46;;;;;;;29.93;20.60;;;4.20;99.90;;;;;;5021617;28;20483;-86
2020/12/19 07:35:15;;;;;;;30.07;20.77;;;4.10;99.90;;;;;;5014859;28;20470;-85
2020/12/19 07:37:52;;;;;;;30.37;20.67;;;4.10;99.90;;;;;;5013780;28;20479;-85
2020/12/19 07:40:21;;;;;;;31.83;22.73;;;4.20;99.90;;;;;;5029078;28;20475;-84
2020/12/19 07:42:59;;;;;;;32.33;22.13;;;4.20;99.90;;;;;;5032566;28;20471;-86
2020/12/19 07:45:27;;;;;;;33.70;22.37;;;4.20;99.90;;;;;;5014470;28;20491;-83
2020/12/19 07:47:55;;;;;;;32.63;22.90;;;4.10;99.90;;;;;;5024934;28;20493;-83
2020/12/19 07:50:27;;;;;;;31.73;22.83;;;4.10;99.90;;;;;;5034936;28;20533;-84
2020/12/19 07:53:04;;;;;;;32.97;20.97;;;4.10;99.90;;;;;;5033312;28;20477;-84
2020/12/19 07:55:35;;;;;;;33.83;21.70;;;4.20;99.90;;;;;;5033771;28;20470;-85
2020/12/19 07:58:03;;;;;;;30.40;21.37;;;4.20;99.90;;;;;;5013915;28;20539;-85
2020/12/19 08:00:32;;;;;;;31.23;21.43;;;4.20;99.90;;;;;;5022049;28;20482;-85
2020/12/19 08:03:09;;;;;;;31.30;21.40;;;4.20;99.90;;;;;;5031757;28;20791;-85
2020/12/19 08:05:40;;;;;;;29.77;20.33;;;4.20;99.90;;;;;;5033035;28;20515;-85
2020/12/19 08:08:12;;;;;;;32.73;21.73;;;4.20;99.90;;;;;;5031474;28;20478;-83
2020/12/19 08:10:39;;;;;;;30.43;21.30;;;4.20;99.90;;;;;;5025203;28;20533;-84
2020/12/19 08:13:10;;;;;;;30.67;21.87;;;4.20;99.90;;;;;;5012659;28;20509;-81
2020/12/19 08:15:38;;;;;;;31.77;22.60;;;4.30;99.90;;;;;;5015039;28;20486;-84
2020/12/19 08:18:09;;;;;;;34.03;23.63;;;4.30;99.90;;;;;;5023430;28;20565;-84
2020/12/19 08:20:39;;;;;;;33.10;22.67;;;4.30;99.90;;;;;;5018214;28;20494;-84
2020/12/19 08:23:08;;;;;;;34.27;23.80;;;4.30;99.90;;;;;;5015495;28;20473;-83
2020/12/19 08:25:41;;;;;;;36.67;24.13;;;4.30;99.90;;;;;;5032332;28;20500;-83
2020/12/19 08:28:20;;;;;;;31.87;22.10;;;4.40;99.90;;;;;;5010031;28;20479;-81
2020/12/19 08:30:52;;;;;;;33.37;22.50;;;4.40;99.90;;;;;;5015090;28;21023;-81
2020/12/19 08:33:20;;;;;;;35.40;23.77;;;4.40;99.90;;;;;;5025410;28;20479;-81
2020/12/19 08:35:48;;;;;;;33.40;23.73;;;4.50;99.90;;;;;;5031775;28;20470;-82
2020/12/19 08:38:20;;;;;;;35.77;23.57;;;4.50;99.90;;;;;;5033600;28;20516;-81
2020/12/19 08:40:49;;;;;;;32.67;23.93;;;4.50;99.90;;;;;;5038800;28;20471;-82
2020/12/19 08:43:21;;;;;;;33.97;22.70;;;4.60;99.90;;;;;;5032524;28;20477;-85
2020/12/19 08:45:50;;;;;;;32.20;23.07;;;4.60;99.90;;;;;;5026382;28;20560;-82
2020/12/19 08:48:21;;;;;;;34.43;23.43;;;4.70;99.90;;;;;;5031952;28;20475;-83
2020/12/19 08:50:50;;;;;;;35.13;22.73;;;4.70;99.90;;;;;;5026309;28;20494;-83
2020/12/19 08:53:21;;;;;;;34.40;23.47;;;4.70;99.90;;;;;;5026665;28;20486;-83
2020/12/19 08:55:50;;;;;;;33.60;22.80;;;4.80;99.90;;;;;;5023883;28;20475;-84
2020/12/19 08:58:24;;;;;;;34.67;24.43;;;4.80;99.90;;;;;;5020272;28;20559;-83
2020/12/19 09:00:52;;;;;;;36.67;23.40;;;4.80;99.90;;;;;;5015683;28;20495;-84
2020/12/19 09:03:28;;;;;;;35.10;23.60;;;4.90;99.90;;;;;;5032097;28;20477;-84
2020/12/19 09:06:04;;;;;;;35.70;24.87;;;4.90;99.90;;;;;;5035579;28;20466;-82
2020/12/19 09:08:35;;;;;;;34.30;23.83;;;5.00;99.90;;;;;;5036357;28;20880;-83
2020/12/19 09:11:05;;;;;;;34.70;24.70;;;5.00;99.90;;;;;;5028275;28;20537;-83
2020/12/19 09:13:33;;;;;;;36.83;24.67;;;5.00;99.90;;;;;;5023453;28;20467;-82
2020/12/19 09:16:09;;;;;;;35.50;24.63;;;5.00;99.90;;;;;;5029563;28;20482;-83
2020/12/19 09:18:42;;;;;;;35.13;23.93;;;5.10;99.90;;;;;;5026195;28;20815;-82
2020/12/19 09:21:11;;;;;;;33.43;24.10;;;5.10;99.90;;;;;;5012265;28;20664;-83
2020/12/19 09:23:40;;;;;;;38.53;25.30;;;5.10;99.90;;;;;;5026346;28;20484;-80
2020/12/19 09:26:10;;;;;;;36.10;25.00;;;5.10;99.90;;;;;;5027291;28;20485;-83
2020/12/19 09:28:42;;;;;;;35.87;24.23;;;5.20;99.90;;;;;;5025514;28;20475;-83
2020/12/19 09:31:12;;;;;;;35.33;24.50;;;5.20;99.90;;;;;;5029166;28;20488;-83
2020/12/19 09:33:39;;;;;;;34.20;24.07;;;5.20;99.90;;;;;;5014507;28;20495;-82
2020/12/19 09:36:07;;;;;;;35.87;24.70;;;5.30;99.90;;;;;;5019137;28;21036;-83
2020/12/19 09:38:35;;;;;;;35.77;24.17;;;5.30;99.90;;;;;;5028697;28;20238;-84
2020/12/19 09:41:08;;;;;;;34.53;23.93;;;5.30;99.90;;;;;;5030166;28;20485;-83
2020/12/19 09:43:36;;;;;;;35.23;23.83;;;5.40;99.90;;;;;;5029552;28;20537;-83
2020/12/19 09:46:04;;;;;;;34.43;23.63;;;5.40;99.90;;;;;;5025694;28;20578;-83
2020/12/19 09:48:33;;;;;;;33.73;24.53;;;5.50;99.90;;;;;;5026961;28;20536;-84
2020/12/19 09:51:01;;;;;;;34.00;23.73;;;5.60;99.90;;;;;;5011828;28;20491;-84
2020/12/19 09:53:29;;;;;;;34.07;23.77;;;5.60;99.90;;;;;;5027496;28;20483;-84
2020/12/19 09:55:58;;;;;;;33.10;21.83;;;5.60;99.90;;;;;;5006559;28;20247;-82
2020/12/19 09:58:26;;;;;;;32.33;22.73;;;5.70;99.90;;;;;;5018795;28;20472;-83
2020/12/19 10:00:54;;;;;;;31.20;23.67;;;5.70;99.90;;;;;;5025472;28;20322;-83
2020/12/19 10:03:21;;;;;;;31.77;22.87;;;5.80;99.90;;;;;;5021509;28;20466;-84
2020/12/19 10:05:48;;;;;;;35.70;24.27;;;5.80;99.90;;;;;;5024820;28;20263;-82
2020/12/19 10:08:18;;;;;;;33.00;23.63;;;5.90;99.90;;;;;;5023917;28;20240;-84
2020/12/19 10:10:46;;;;;;;31.53;23.10;;;6.00;99.90;;;;;;5026459;28;20236;-84
2020/12/19 10:13:14;;;;;;;30.67;23.03;;;6.10;99.90;;;;;;5009149;28;20311;-84
2020/12/19 10:15:43;;;;;;;32.60;23.17;;;6.10;99.90;;;;;;5027066;28;20528;-83
2020/12/19 10:18:10;;;;;;;32.50;23.50;;;6.20;99.90;;;;;;5029571;28;20320;-83
2020/12/19 10:20:38;;;;;;;31.43;22.67;;;6.20;99.90;;;;;;5029026;28;20920;-84
2020/12/19 10:23:11;;;;;;;30.33;22.77;;;6.30;99.90;;;;;;5028533;28;20232;-84
2020/12/19 10:25:41;;;;;;;30.73;22.47;;;6.40;99.90;;;;;;5021668;28;20242;-83
2020/12/19 10:28:08;;;;;;;27.50;21.77;;;6.50;99.90;;;;;;5022661;28;20271;-84
2020/12/19 10:30:35;;;;;;;33.63;24.30;;;6.50;99.90;;;;;;5017121;28;21759;-83
2020/12/19 10:33:05;;;;;;;31.73;23.23;;;6.60;99.90;;;;;;5021410;28;20311;-82
2020/12/19 10:35:33;;;;;;;28.37;22.00;;;6.80;99.90;;;;;;5026072;28;20490;-83
2020/12/19 10:38:03;;;;;;;29.53;22.10;;;6.70;99.90;;;;;;5027640;28;20322;-82
2020/12/19 10:40:31;;;;;;;29.50;21.47;;;6.70;99.90;;;;;;5018423;28;20643;-82
2020/12/19 10:43:01;;;;;;;29.27;21.97;;;6.70;99.90;;;;;;5020397;28;20301;-82
2020/12/19 10:45:30;;;;;;;30.80;21.90;;;6.90;99.90;;;;;;5011688;28;20880;-82
2020/12/19 10:47:59;;;;;;;29.00;22.23;;;7.00;99.90;;;;;;5029454;28;20241;-82
2020/12/19 10:50:27;;;;;;;26.40;19.87;;;7.10;99.90;;;;;;5026684;28;20240;-82
2020/12/19 10:52:56;;;;;;;30.03;21.07;;;7.10;99.90;;;;;;5010603;28;20241;-83
2020/12/19 10:55:23;;;;;;;25.40;20.60;;;7.20;99.90;;;;;;5028449;28;20248;-83
2020/12/19 10:57:50;;;;;;;27.43;20.47;;;7.30;99.90;;;;;;5025937;28;20731;-82
2020/12/19 11:00:21;;;;;;;29.77;21.80;;;7.30;99.90;;;;;;5025656;28;20245;-84
2020/12/19 11:02:49;;;;;;;26.20;20.83;;;7.40;99.90;;;;;;5028750;28;20240;-83
2020/12/19 11:05:21;;;;;;;25.63;19.73;;;7.50;99.90;;;;;;5027261;28;20298;-83
2020/12/19 11:07:52;;;;;;;24.90;19.97;;;7.80;99.90;;;;;;5028604;28;20252;-83
2020/12/19 11:10:20;;;;;;;22.33;18.30;;;7.80;99.90;;;;;;5033958;28;20236;-83
2020/12/19 11:12:49;;;;;;;24.37;18.77;;;7.90;99.90;;;;;;5009480;28;20235;-83
2020/12/19 11:15:20;;;;;;;23.87;18.27;;;7.90;99.90;;;;;;5033836;28;20247;-84
2020/12/19 11:17:50;;;;;;;22.93;19.10;;;8.00;99.90;;;;;;5028441;28;21038;-83
2020/12/19 11:20:18;;;;;;;23.70;19.23;;;8.10;99.90;;;;;;5015076;28;20244;-83
2020/12/19 11:22:45;;;;;;;23.33;18.60;;;8.20;99.90;;;;;;5032261;28;20286;-81
2020/12/19 11:25:16;;;;;;;23.27;19.07;;;8.40;99.90;;;;;;5035300;28;20240;-83
2020/12/19 11:27:47;;;;;;;24.00;18.60;;;8.40;99.90;;;;;;5033481;28;20367;-83
2020/12/19 11:30:18;;;;;;;24.17;18.57;;;8.50;99.90;;;;;;5033525;28;20251;-83
2020/12/19 11:32:47;;;;;;;21.30;17.43;;;8.60;99.90;;;;;;5034911;28;20243;-83
2020/12/19 11:35:15;;;;;;;21.93;18.20;;;8.50;99.90;;;;;;5034029;28;20358;-83
2020/12/19 11:37:44;;;;;;;22.70;18.33;;;8.70;99.90;;;;;;5036198;28;20799;-82
2020/12/19 11:40:11;;;;;;;25.07;18.77;;;8.70;99.90;;;;;;5034461;28;20252;-82
2020/12/19 11:42:39;;;;;;;21.43;17.87;;;8.60;99.90;;;;;;5013423;28;20268;-83
2020/12/19 11:45:08;;;;;;;24.37;19.00;;;8.60;99.90;;;;;;5028054;28;20232;-86
2020/12/19 11:47:38;;;;;;;22.77;18.40;;;8.60;99.90;;;;;;5034590;28;20258;-84
2020/12/19 11:50:06;;;;;;;22.67;18.77;;;8.60;99.90;;;;;;5036597;28;20239;-86
2020/12/19 11:52:34;;;;;;;22.00;17.90;;;8.70;99.90;;;;;;5041385;28;20243;-85
2020/12/19 11:55:01;;;;;;;20.93;17.97;;;8.80;99.90;;;;;;5035639;28;20308;-83
2020/12/19 11:57:28;;;;;;;19.70;16.50;;;8.80;99.90;;;;;;5036013;28;20374;-85
2020/12/19 11:59:56;;;;;;;22.47;17.83;;;8.80;99.90;;;;;;5034277;28;20237;-83
2020/12/19 12:02:25;;;;;;;22.17;17.53;;;8.80;99.90;;;;;;5036086;28;20280;-84
2020/12/19 12:04:53;;;;;;;21.93;17.47;;;8.90;99.90;;;;;;5019601;28;20296;-83
2020/12/19 12:07:21;;;;;;;21.37;17.50;;;8.90;99.90;;;;;;5036250;28;20248;-84
2020/12/19 12:09:48;;;;;;;20.27;16.67;;;9.00;99.90;;;;;;5035871;28;20248;-83
2020/12/19 12:12:16;;;;;;;20.17;16.63;;;9.00;99.90;;;;;;5033725;28;20746;-80
2020/12/19 12:14:44;;;;;;;20.63;17.17;;;9.00;99.90;;;;;;5012427;28;20271;-83
2020/12/19 12:17:13;;;;;;;21.33;17.27;;;9.10;99.90;;;;;;5033900;28;20239;-83
2020/12/19 12:19:41;;;;;;;19.43;16.07;;;9.10;99.90;;;;;;5029769;28;20240;-84
2020/12/19 12:22:09;;;;;;;19.47;17.20;;;9.10;99.90;;;;;;5009255;28;20234;-84
2020/12/19 12:24:36;;;;;;;20.53;16.27;;;9.20;99.90;;;;;;5019619;28;20628;-84
2020/12/19 12:27:05;;;;;;;19.07;16.20;;;9.20;99.90;;;;;;5017645;28;20260;-82
2020/12/19 12:29:33;;;;;;;21.50;17.77;;;9.10;99.90;;;;;;5014321;28;20240;-84
2020/12/19 12:32:02;;;;;;;18.90;16.87;;;9.20;99.90;;;;;;5028066;28;20256;-85
2020/12/19 12:34:36;;;;;;;21.73;17.10;;;9.20;99.90;;;;;;5022140;28;20239;-84
2020/12/19 12:37:06;;;;;;;21.47;16.63;;;9.20;99.90;;;;;;5009930;28;20299;-84
2020/12/19 12:39:34;;;;;;;19.90;16.93;;;9.30;99.90;;;;;;5016222;28;20237;-84
2020/12/19 12:42:11;;;;;;;18.63;16.17;;;9.20;99.90;;;;;;5025924;28;20280;-82
2020/12/19 12:44:42;;;;;;;17.97;16.00;;;9.20;99.90;;;;;;5021903;28;20250;-84
2020/12/19 12:47:10;;;;;;;21.00;17.33;;;9.20;99.90;;;;;;5029815;28;20268;-84
2020/12/19 12:49:39;;;;;;;18.97;16.07;;;9.20;99.90;;;;;;5030691;28;20240;-85
2020/12/19 12:52:06;;;;;;;18.07;15.77;;;9.00;99.90;;;;;;5030933;28;21029;-84
2020/12/19 12:54:36;;;;;;;23.10;17.20;;;9.10;99.90;;;;;;5018214;28;20240;-84
2020/12/19 12:57:04;;;;;;;19.87;16.40;;;9.10;99.90;;;;;;5017646;28;20294;-83
2020/12/19 12:59:35;;;;;;;19.13;16.73;;;9.10;99.90;;;;;;5020378;28;21021;-84